Huvudsida
METAR-TAF:

METAR-TAF

Flygplatser :

Tammerfors-Birkala flygplats

Tammerfors, Finland

latitud: 61-25N, longitud: 023-35E, höjd: 112 m

Aktuellt väderrapport

Denna rapport gjordes för 34 minuter sedan, klockan 09:20 UTC
Vind 7 kt från nord/nordväst
Temperatur 8°C
Fuktighet 61%
Tryck 1023 hPa
Sikt 10 km eller mer
Få moln på en höjd av 2800 ft

METAR: EFTP 230920Z 33007KT 9999 FEW028 08/01 Q1023

Tid: 12:54 (09:54 UTC)

Väderprognos

Denna rapport gjordes för 1 timme och 29 minuter sedan, klockan 08:25 UTC
Prognos gäller från 23 kl. 09 UTC till 24 kl. 09 UTC
Vind 5 kt från nordväst
Sikt 10 km eller mer
Brutna moln på en höjd av 4500 ft

TAF: EFTP 230825Z 2309/2409 32005KT 9999 BKN045

Aktuella väderrapporter och prognoser från 4000 flygplatser (METAR- och TAF-rapporter).

De tillgängliga stationerna syns som gula och röda prickar på kartan.

För musen över prickarna för att se namnen på stationerna.

Klicka sedan för att få väderrapporter och prognoser.

För att ändra kartan: Klicka på de gröna knapparna med ett svart kors på för att zooma in; den gröna knappen med ett streck på för att zooma ut; eller på de gröna pilarna för angränsande kartor.


METAR-TAF: